Terminal Aerodrome Forecast
Issued by NWS Cleveland, OH

Home | Current Version | Previous Version | Graphics & Text | Print | Product List | Glossary Off
Versions: 1 2 3 4 5 6 7 8 9 10 11 12 13 14 15 16 17 18 19 20

000
FTUS41 KCLE 291334 AAB
TAFMFD
TAF AMD
KMFD 291334Z 2914/3012 06008KT P6SM BKN007
      TEMPO 2914/2916 SCT010
     FM291600 04006KT P6SM SCT030
     FM292300 01003KT P6SM SKC=

USA.gov is the U.S. government's official web portal to all federal, state and local government web resources and services.